map of 0VG home
0VG - Airport
Location
City:  Jonesville, Virginia, United States
Name:Lee County Airport
FAA LID:0VG

Details
Type:Airport (Airfield)
Use:Public/Civil
Latitude:3639'15"N (36.654083)
Longitude:8313'04"W (-83.217832)
Datum:WGS 1984
Elevation:1410 ft (430 m)
Variation:6.39W (WMM2015v2 magnetic declination)
-0.04 annual change
Runways:1
Longest:5003 × 75 ft (1525 × 23 m), paved

Time
Time Zone:UTC-5 (DST-4)
Local Time:

Weather
METAR:K0VG 041415Z AUTO 00000KT 10SM BKN028 03/01 A3012 RMK AO2

Related Locations
Nearby:
Farthest:YAUG: 11397 mi / 18341 km
Augusta [Augusta Airport], WA, AU

Find:

   beyond  
but within

Other Information
Maps:
NOTAMs:
Links:
Sources:

  
  • flag of United States
  • flag of Virginia
  

Sectional Chart

Flight Planning
at skyvector.com

Satellite Image

Google Maps Satellite view

 

Copyright © 2004-2019 Karl L. Swartz. All rights reserved.
The Great Circle Mapper name and logo are trademarks of the Great Circle Mapper.
All other trademarks mentioned herein belong to their respective owners.
Please see credits for attibutions and further copyright information.

  Follow gcmap on Facebook Follow gcmap on Twitter GCmap on LinkedIn

hCard Microformat

Geo Microformat